Terminal Aerodrome Forecast
Issued by NWS

Home | Current Version | Previous Version | Text Only | Print | Product List | Glossary On
Versions: 1 2 3 4 5 6 7 8 9 10 11 12 13 14 15 16 17 18 19 20 21 22 23 24
000
FTUS43 KLSX 080604 AAA
TAFUIN
TAF AMD
KUIN 080604Z 0806/0906 VRB04KT 6SM -RA BR SCT020 OVC035
     FM081800 10009KT 3SM -RA BR VCTS SCT007CB OVC025
     FM090200 33005KT 4SM -RA BR OVC007=

USA.gov is the U.S. government's official web portal to all federal, state and local government web resources and services.